createdAt,value
2019-03-17T00:00:59.133Z,70.16
2019-03-17T00:03:26.572Z,69.68
2019-03-17T00:05:54.007Z,69.97
2019-03-17T00:08:21.315Z,70.60
2019-03-17T00:10:48.582Z,70.64
2019-03-17T00:13:17.820Z,70.19
2019-03-17T00:15:45.156Z,69.79
2019-03-17T00:18:12.450Z,70.72
2019-03-17T00:20:39.727Z,70.28
2019-03-17T00:23:07.077Z,70.29
2019-03-17T00:25:34.375Z,70.02
2019-03-17T00:28:01.736Z,69.82
2019-03-17T00:30:29.014Z,70.43
2019-03-17T00:32:56.336Z,70.27
2019-03-17T00:35:23.639Z,71.18
2019-03-17T00:37:50.976Z,71.45
2019-03-17T00:40:18.316Z,71.59
2019-03-17T00:42:45.611Z,71.43
2019-03-17T00:45:12.977Z,71.62
2019-03-17T00:47:40.320Z,72.46
2019-03-17T00:50:07.995Z,71.67
2019-03-17T00:52:35.260Z,72.41
2019-03-17T00:55:03.402Z,71.39
2019-03-17T00:57:30.728Z,71.95
2019-03-17T00:59:58.016Z,71.54
2019-03-17T01:02:25.336Z,71.82
2019-03-17T01:04:56.448Z,71.57
2019-03-17T01:07:21.939Z,69.79
2019-03-17T01:09:49.256Z,70.13
2019-03-17T01:12:16.554Z,70.62
2019-03-17T01:14:43.912Z,71.31
2019-03-17T01:17:11.230Z,72.24
2019-03-17T01:19:38.548Z,72.96
2019-03-17T01:22:05.876Z,71.85
2019-03-17T01:24:33.231Z,72.24
2019-03-17T01:27:00.537Z,71.94
2019-03-17T01:29:27.856Z,71.57
2019-03-17T01:31:55.216Z,71.43
2019-03-17T01:34:22.570Z,72.00
2019-03-17T01:36:49.936Z,71.82
2019-03-17T01:39:17.247Z,71.86
2019-03-17T01:41:44.595Z,70.56
2019-03-17T01:44:11.856Z,71.53
2019-03-17T01:46:39.152Z,72.32
2019-03-17T01:49:06.533Z,71.41
2019-03-17T01:51:33.936Z,71.10
2019-03-17T01:54:01.425Z,71.04
2019-03-17T01:56:28.835Z,71.43
2019-03-17T01:58:56.146Z,72.03
2019-03-17T02:01:23.427Z,72.64
2019-03-17T02:03:50.777Z,71.82
2019-03-17T02:06:18.095Z,68.98
2019-03-17T02:08:45.464Z,70.67
2019-03-17T02:11:12.788Z,70.62
2019-03-17T02:13:40.112Z,70.67
2019-03-17T02:16:07.477Z,72.68
2019-03-17T02:18:34.750Z,72.09
2019-03-17T02:21:02.037Z,72.13
2019-03-17T02:23:29.340Z,71.01
2019-03-17T02:25:56.680Z,71.25
2019-03-17T02:28:24.011Z,71.20
2019-03-17T02:30:51.298Z,72.56
2019-03-17T02:33:18.593Z,73.16
2019-03-17T02:35:45.891Z,72.71
2019-03-17T02:38:13.200Z,71.93
2019-03-17T02:40:40.496Z,72.43
2019-03-17T02:43:07.820Z,73.40
2019-03-17T02:45:35.126Z,73.67
2019-03-17T02:48:02.438Z,73.61
2019-03-17T02:50:29.715Z,74.11
2019-03-17T02:52:57.077Z,72.46
2019-03-17T02:55:24.362Z,72.37
2019-03-17T02:57:51.729Z,72.11
2019-03-17T03:00:19.217Z,72.55
2019-03-17T03:02:46.519Z,72.84
2019-03-17T03:05:13.840Z,73.59
2019-03-17T03:07:41.235Z,72.46
2019-03-17T03:10:08.638Z,71.28
2019-03-17T03:12:35.915Z,72.51
2019-03-17T03:15:03.457Z,72.31
2019-03-17T03:17:30.800Z,72.30
2019-03-17T03:19:58.698Z,73.05
2019-03-17T03:22:25.997Z,73.20
2019-03-17T03:24:53.295Z,73.20
2019-03-17T03:27:20.578Z,73.94
2019-03-17T03:29:47.904Z,73.55
2019-03-17T03:32:15.258Z,70.74
2019-03-17T03:34:42.537Z,71.31
2019-03-17T03:37:09.857Z,69.35
2019-03-17T03:39:37.187Z,69.85
2019-03-17T03:42:04.518Z,71.04
2019-03-17T03:44:31.873Z,72.50
2019-03-17T03:46:59.161Z,72.54
2019-03-17T03:49:26.488Z,72.68
2019-03-17T03:51:53.818Z,73.56
2019-03-17T03:54:21.147Z,73.12
2019-03-17T03:56:48.423Z,73.47
2019-03-17T03:59:15.740Z,73.01
2019-03-17T04:01:43.052Z,73.11
2019-03-17T04:04:10.328Z,75.03
2019-03-17T04:06:37.612Z,74.24
2019-03-17T04:09:06.857Z,75.48
2019-03-17T04:11:34.160Z,74.58
2019-03-17T04:14:01.540Z,73.67
2019-03-17T04:16:28.861Z,75.56
2019-03-17T04:18:56.184Z,74.80
2019-03-17T04:21:23.762Z,74.28
2019-03-17T04:23:51.062Z,74.20
2019-03-17T04:26:18.347Z,74.44
2019-03-17T04:28:45.657Z,73.91
2019-03-17T04:31:14.629Z,74.33
2019-03-17T04:33:42.200Z,74.06
2019-03-17T04:36:09.520Z,73.77
2019-03-17T04:38:36.828Z,74.72
2019-03-17T04:41:04.118Z,74.98
2019-03-17T04:43:31.422Z,75.09
2019-03-17T04:45:58.676Z,75.47
2019-03-17T04:48:25.988Z,74.68
2019-03-17T04:50:53.305Z,75.47
2019-03-17T04:53:20.658Z,73.78
2019-03-17T04:55:47.937Z,75.47
2019-03-17T04:58:15.262Z,75.28
2019-03-17T05:00:42.617Z,74.54
2019-03-17T05:03:09.891Z,75.37
2019-03-17T05:05:37.204Z,75.35
2019-03-17T05:08:04.496Z,75.75
2019-03-17T05:10:31.854Z,76.85
2019-03-17T05:12:59.117Z,75.04
2019-03-17T05:15:26.460Z,76.10
2019-03-17T05:17:53.760Z,75.47
2019-03-17T05:20:21.142Z,76.68
2019-03-17T05:22:48.492Z,75.37
2019-03-17T05:25:15.847Z,74.90
2019-03-17T05:27:43.156Z,74.57
2019-03-17T05:30:11.017Z,75.54
2019-03-17T05:32:40.224Z,75.27
2019-03-17T05:35:07.637Z,74.81
2019-03-17T05:37:35.059Z,74.29
2019-03-17T05:40:02.403Z,75.83
2019-03-17T05:42:29.697Z,75.39
2019-03-17T05:44:56.975Z,75.41
2019-03-17T05:47:24.319Z,76.26
2019-03-17T05:49:51.579Z,76.11
2019-03-17T05:52:18.875Z,75.70
2019-03-17T05:54:46.538Z,76.31
2019-03-17T05:57:13.852Z,75.65
2019-03-17T05:59:41.233Z,75.24
2019-03-17T06:02:08.519Z,75.68
2019-03-17T06:04:35.822Z,74.82
2019-03-17T06:07:03.162Z,75.24
2019-03-17T06:09:30.524Z,73.85
2019-03-17T06:11:57.855Z,73.68
2019-03-17T06:14:25.149Z,74.15
2019-03-17T06:16:52.544Z,74.82
2019-03-17T06:19:19.849Z,74.49
2019-03-17T06:21:47.156Z,74.29
2019-03-17T06:24:14.483Z,75.18
2019-03-17T06:26:41.769Z,74.54
2019-03-17T06:29:09.108Z,73.92
2019-03-17T06:31:36.446Z,73.37
2019-03-17T06:34:03.878Z,73.99
2019-03-17T06:36:31.190Z,74.82
2019-03-17T06:38:58.524Z,74.24
2019-03-17T06:41:25.880Z,75.21
2019-03-17T06:43:53.217Z,74.92
2019-03-17T06:46:20.556Z,74.37
2019-03-17T06:48:48.137Z,74.18
2019-03-17T06:51:15.445Z,73.81
2019-03-17T06:53:55.426Z,73.65
2019-03-17T06:56:11.973Z,73.97
2019-03-17T06:58:39.278Z,73.97
2019-03-17T07:01:06.574Z,75.13
2019-03-17T07:03:33.922Z,72.69
2019-03-17T07:06:01.216Z,73.42
2019-03-17T07:08:28.589Z,72.79
2019-03-17T07:10:55.916Z,73.08
2019-03-17T07:13:23.237Z,72.92
2019-03-17T07:15:50.532Z,73.12
2019-03-17T07:18:17.814Z,73.93
2019-03-17T07:20:45.084Z,75.33
2019-03-17T07:23:12.423Z,77.64
2019-03-17T07:25:39.715Z,71.92
2019-03-17T07:28:07.056Z,71.55
2019-03-17T07:30:34.326Z,72.57
2019-03-17T07:33:01.664Z,72.22
2019-03-17T07:35:28.958Z,71.29
2019-03-17T07:37:57.302Z,72.11
2019-03-17T07:40:24.802Z,72.67
2019-03-17T07:42:52.142Z,71.27
2019-03-17T07:45:19.409Z,69.71
2019-03-17T07:47:46.703Z,71.42
2019-03-17T07:50:13.990Z,69.85
2019-03-17T07:52:41.284Z,68.33
2019-03-17T07:55:08.755Z,70.20
2019-03-17T07:57:36.020Z,66.69
2019-03-17T08:00:04.098Z,66.93
2019-03-17T08:02:31.357Z,67.90
2019-03-17T08:04:58.655Z,66.98
2019-03-17T08:07:25.968Z,70.31
2019-03-17T08:09:53.252Z,67.11
2019-03-17T08:12:20.573Z,68.41
2019-03-17T08:14:47.906Z,65.68
2019-03-17T08:17:16.264Z,66.53
2019-03-17T08:19:45.700Z,67.48
2019-03-17T08:22:13.059Z,66.86
2019-03-17T08:24:40.377Z,64.40
2019-03-17T08:27:07.664Z,66.80
2019-03-17T08:29:35.043Z,64.86
2019-03-17T08:32:02.389Z,63.90
2019-03-17T08:34:29.688Z,61.76
2019-03-17T08:36:57.033Z,64.40
2019-03-17T08:39:24.349Z,63.28
2019-03-17T08:41:51.634Z,62.39
2019-03-17T08:44:18.980Z,62.14
2019-03-17T08:46:46.290Z,60.39
2019-03-17T08:49:13.612Z,61.53
2019-03-17T08:51:40.879Z,59.83
2019-03-17T08:54:08.254Z,60.04
2019-03-17T08:56:35.508Z,58.63
2019-03-17T08:59:02.897Z,60.22
2019-03-17T09:01:30.259Z,59.27
2019-03-17T09:03:57.548Z,58.60
2019-03-17T09:06:24.888Z,57.56
2019-03-17T09:08:52.198Z,56.92
2019-03-17T09:11:19.511Z,59.48
2019-03-17T09:13:46.915Z,59.42
2019-03-17T09:16:14.445Z,58.18
2019-03-17T09:18:41.799Z,58.93
2019-03-17T09:21:09.125Z,58.97
2019-03-17T09:23:36.480Z,57.85
2019-03-17T09:26:03.784Z,57.29
2019-03-17T09:28:31.128Z,58.44
2019-03-17T09:30:58.483Z,57.54
2019-03-17T09:33:25.769Z,58.39
2019-03-17T09:35:53.049Z,57.49
2019-03-17T09:38:20.403Z,54.67
2019-03-17T09:40:47.766Z,54.58
2019-03-17T09:43:15.183Z,53.54
2019-03-17T09:45:42.511Z,53.95
2019-03-17T09:48:09.870Z,54.82
2019-03-17T09:50:37.167Z,52.31
2019-03-17T09:53:04.522Z,53.21
2019-03-17T09:55:32.061Z,51.76
2019-03-17T09:57:59.368Z,51.63
2019-03-17T10:00:26.861Z,50.93
2019-03-17T10:02:54.230Z,53.93
2019-03-17T10:05:22.315Z,52.31
2019-03-17T10:07:49.688Z,51.96
2019-03-17T10:10:17.029Z,54.05
2019-03-17T10:12:44.327Z,53.09
2019-03-17T10:15:12.289Z,51.86
2019-03-17T10:17:39.704Z,52.08
2019-03-17T10:20:09.646Z,52.48
2019-03-17T10:22:39.741Z,52.32
2019-03-17T10:25:07.650Z,50.47
2019-03-17T10:27:35.111Z,50.52
2019-03-17T10:30:02.713Z,52.35
2019-03-17T10:32:30.181Z,52.25
2019-03-17T10:34:57.503Z,51.13
2019-03-17T10:37:24.918Z,50.64
2019-03-17T10:39:52.258Z,49.75
2019-03-17T10:42:19.572Z,50.59
2019-03-17T10:44:46.871Z,49.61
2019-03-17T10:47:14.230Z,50.04
2019-03-17T10:49:41.548Z,48.23
2019-03-17T10:52:08.957Z,48.87
2019-03-17T10:54:36.511Z,49.13
2019-03-17T10:57:03.962Z,48.27
2019-03-17T10:59:31.457Z,48.64
2019-03-17T11:01:58.994Z,50.77
2019-03-17T11:04:26.336Z,52.47
2019-03-17T11:06:53.670Z,51.86
2019-03-17T11:09:25.430Z,51.42
2019-03-17T11:11:50.437Z,50.98
2019-03-17T11:14:17.864Z,51.00
2019-03-17T11:16:45.348Z,50.24
2019-03-17T11:19:13.657Z,49.64
2019-03-17T11:21:41.167Z,49.26
2019-03-17T11:24:08.648Z,50.28
2019-03-17T11:26:36.217Z,49.59
2019-03-17T11:29:03.805Z,50.87
2019-03-17T11:31:31.278Z,50.08
2019-03-17T11:33:58.810Z,48.04
2019-03-17T11:36:26.662Z,51.17
2019-03-17T11:38:54.172Z,48.50
2019-03-17T11:41:21.516Z,48.87
2019-03-17T11:43:49.059Z,48.17
2019-03-17T11:46:16.542Z,48.35
2019-03-17T11:48:43.912Z,49.32
2019-03-17T11:51:11.364Z,48.80
2019-03-17T11:53:38.983Z,49.58
2019-03-17T11:56:06.471Z,49.32
2019-03-17T11:58:33.951Z,49.14
2019-03-17T12:01:01.538Z,47.81
2019-03-17T12:03:29.031Z,48.29
2019-03-17T12:05:56.609Z,48.63
2019-03-17T12:08:24.153Z,48.21
2019-03-17T12:10:51.656Z,47.09
2019-03-17T12:13:21.514Z,47.88
2019-03-17T12:15:49.341Z,50.20
2019-03-17T12:18:16.882Z,47.47
2019-03-17T12:20:44.590Z,45.14
2019-03-17T12:23:12.403Z,44.16
2019-03-17T12:25:40.232Z,44.23
2019-03-17T12:28:07.976Z,47.93
2019-03-17T12:30:36.655Z,46.08
2019-03-17T12:33:04.279Z,45.01
2019-03-17T12:35:33.010Z,47.63
2019-03-17T12:38:00.721Z,46.97
2019-03-17T12:40:28.612Z,45.37
2019-03-17T12:42:56.305Z,44.09
2019-03-17T12:45:24.076Z,43.99
2019-03-17T12:47:51.819Z,46.07
2019-03-17T12:50:19.732Z,45.58
2019-03-17T12:52:47.690Z,46.81
2019-03-17T12:55:15.288Z,44.47
2019-03-17T12:57:42.986Z,43.81
2019-03-17T13:00:15.612Z,43.09
2019-03-17T13:02:43.257Z,44.85
2019-03-17T13:05:11.490Z,44.03
2019-03-17T13:07:39.320Z,42.80
2019-03-17T13:10:15.540Z,43.35
2019-03-17T13:12:38.949Z,42.39
2019-03-17T13:15:07.715Z,42.33
2019-03-17T13:17:35.891Z,42.32
2019-03-17T13:20:04.200Z,41.60
2019-03-17T13:22:34.066Z,41.83
2019-03-17T13:25:01.898Z,39.42
2019-03-17T13:27:29.721Z,40.69
2019-03-17T13:29:57.824Z,40.71
2019-03-17T13:32:25.786Z,38.75
2019-03-17T13:34:53.611Z,39.88
2019-03-17T13:37:21.541Z,37.20
2019-03-17T13:39:49.668Z,36.09
2019-03-17T13:42:17.381Z,33.45
2019-03-17T13:44:45.021Z,32.32
2019-03-17T13:47:15.275Z,31.90
2019-03-17T13:49:42.913Z,32.21
2019-03-17T13:52:10.609Z,31.51
2019-03-17T13:54:38.810Z,30.97
2019-03-17T13:57:06.407Z,33.02
2019-03-17T13:59:34.017Z,31.12
2019-03-17T14:02:01.730Z,32.71
2019-03-17T14:04:29.530Z,30.68
2019-03-17T14:06:57.246Z,32.36
2019-03-17T14:09:24.973Z,31.87
2019-03-17T14:11:53.110Z,31.62
2019-03-17T14:14:21.941Z,32.21
2019-03-17T14:16:49.647Z,32.08
2019-03-17T14:19:17.401Z,31.74
2019-03-17T14:21:45.312Z,32.26
2019-03-17T14:24:13.058Z,32.52
2019-03-17T14:26:40.796Z,32.53
2019-03-17T14:29:08.499Z,32.07
2019-03-17T14:31:36.254Z,32.02
2019-03-17T14:34:04.088Z,32.24
2019-03-17T14:36:31.774Z,31.76
2019-03-17T14:38:59.577Z,32.04
2019-03-17T14:41:27.353Z,32.20
2019-03-17T14:43:55.221Z,32.77
2019-03-17T14:46:22.971Z,32.97
2019-03-17T14:48:50.720Z,32.89
2019-03-17T14:51:18.765Z,31.83
2019-03-17T14:53:46.394Z,32.77
2019-03-17T14:56:14.080Z,32.24
2019-03-17T14:58:42.160Z,33.01
2019-03-17T15:01:09.936Z,32.56
2019-03-17T15:03:37.600Z,33.88
2019-03-17T15:06:05.414Z,32.64
2019-03-17T15:08:33.055Z,32.85
2019-03-17T15:11:05.636Z,33.13
2019-03-17T15:13:30.465Z,33.98
2019-03-17T15:16:02.673Z,33.98
2019-03-17T15:18:27.838Z,33.45
2019-03-17T15:20:55.607Z,34.08
2019-03-17T15:23:23.436Z,33.82
2019-03-17T15:25:51.340Z,33.84
2019-03-17T15:28:19.675Z,33.92
2019-03-17T15:31:05.645Z,33.87
2019-03-17T15:33:19.932Z,34.72
2019-03-17T15:35:48.048Z,34.17
2019-03-17T15:38:16.109Z,33.92
2019-03-17T15:40:44.009Z,35.38
2019-03-17T15:43:11.819Z,34.38
2019-03-17T15:45:40.864Z,34.50
2019-03-17T15:48:08.667Z,35.36
2019-03-17T15:50:39.706Z,35.77
2019-03-17T15:53:07.732Z,35.87
2019-03-17T15:55:35.663Z,36.48
2019-03-17T15:58:03.627Z,36.06
2019-03-17T16:00:31.598Z,36.22
2019-03-17T16:02:59.944Z,36.59
2019-03-17T16:05:30.021Z,36.66
2019-03-17T16:08:00.388Z,36.76
2019-03-17T16:10:28.276Z,37.06
2019-03-17T16:12:56.282Z,36.72
2019-03-17T16:15:24.164Z,37.36
2019-03-17T16:17:52.026Z,37.13
2019-03-17T16:20:20.272Z,37.08
2019-03-17T16:22:50.517Z,37.17
2019-03-17T16:25:18.521Z,37.67
2019-03-17T16:27:46.463Z,38.33
2019-03-17T16:30:19.433Z,39.06
2019-03-17T16:32:47.649Z,40.05
2019-03-17T16:35:15.619Z,44.03
2019-03-17T16:37:45.247Z,41.45
2019-03-17T16:40:14.184Z,46.22
2019-03-17T16:42:41.929Z,47.84
2019-03-17T16:45:11.170Z,48.04
2019-03-17T16:47:38.936Z,47.63
2019-03-17T16:50:08.783Z,49.64
2019-03-17T16:52:37.808Z,50.56
2019-03-17T16:55:06.412Z,49.85
2019-03-17T16:57:34.184Z,50.52
2019-03-17T17:00:02.017Z,50.37
2019-03-17T17:02:29.803Z,51.52
2019-03-17T17:04:57.484Z,45.65
2019-03-17T17:07:25.425Z,49.28
2019-03-17T17:09:53.702Z,50.75
2019-03-17T17:12:21.585Z,48.18
2019-03-17T17:14:49.569Z,51.72
2019-03-17T17:17:17.481Z,51.66
2019-03-17T17:19:56.038Z,45.92
2019-03-17T17:22:24.255Z,43.72
2019-03-17T17:24:51.943Z,38.71
2019-03-17T17:27:20.756Z,40.50
2019-03-17T17:29:48.665Z,40.41
2019-03-17T17:32:16.622Z,39.63
2019-03-17T17:34:44.514Z,41.69
2019-03-17T17:37:12.334Z,40.23
2019-03-17T17:39:40.032Z,40.18
2019-03-17T17:42:10.120Z,41.59
2019-03-17T17:44:37.672Z,41.01
2019-03-17T17:47:05.503Z,40.50
2019-03-17T17:49:33.469Z,41.95
2019-03-17T17:52:03.514Z,42.40
2019-03-17T17:54:31.241Z,41.85
2019-03-17T17:56:59.586Z,42.69
2019-03-17T17:59:31.577Z,41.42
2019-03-17T18:01:59.532Z,41.83
2019-03-17T18:04:28.527Z,43.29
2019-03-17T18:06:56.391Z,44.16
2019-03-17T18:09:24.641Z,43.50
2019-03-17T18:11:53.677Z,43.16
2019-03-17T18:14:21.771Z,43.47
2019-03-17T18:16:51.180Z,43.42
2019-03-17T18:19:19.528Z,44.09
2019-03-17T18:21:47.404Z,44.39
2019-03-17T18:24:16.205Z,44.79
2019-03-17T18:26:44.441Z,44.85
2019-03-17T18:29:12.294Z,44.27
2019-03-17T18:31:41.345Z,44.89
2019-03-17T18:34:09.404Z,45.35
2019-03-17T18:36:37.779Z,45.50
2019-03-17T18:39:06.897Z,46.21
2019-03-17T18:41:34.969Z,47.48
2019-03-17T18:44:03.303Z,47.15
2019-03-17T18:46:31.574Z,47.52
2019-03-17T18:49:03.183Z,49.04
2019-03-17T18:51:31.037Z,48.49
2019-03-17T18:53:59.020Z,49.44
2019-03-17T18:56:30.349Z,49.76
2019-03-17T18:58:58.257Z,51.50
2019-03-17T19:01:26.532Z,53.08
2019-03-17T19:03:54.534Z,55.09
2019-03-17T19:06:23.544Z,57.25
2019-03-17T19:08:51.959Z,58.21
2019-03-17T19:11:20.240Z,58.28
2019-03-17T19:13:48.081Z,59.28
2019-03-17T19:16:16.046Z,60.12
2019-03-17T19:18:43.964Z,61.40
2019-03-17T19:21:11.797Z,62.49
2019-03-17T19:23:39.671Z,63.53
2019-03-17T19:26:11.478Z,65.01
2019-03-17T19:28:39.463Z,66.25
2019-03-17T19:31:08.360Z,67.06
2019-03-17T19:33:36.661Z,69.62
2019-03-17T19:36:04.935Z,69.92
2019-03-17T19:38:32.821Z,72.42
2019-03-17T19:41:03.415Z,73.23
2019-03-17T19:43:32.091Z,74.42
2019-03-17T19:46:00.788Z,75.28
2019-03-17T19:48:29.055Z,75.36
2019-03-17T19:50:58.118Z,75.80
2019-03-17T19:53:27.323Z,74.63
2019-03-17T19:55:55.198Z,74.24
2019-03-17T19:58:23.237Z,73.95
2019-03-17T20:00:53.235Z,76.37
2019-03-17T20:03:21.208Z,74.07
2019-03-17T20:06:01.765Z,76.71
2019-03-17T20:08:20.119Z,74.61
2019-03-17T20:10:48.047Z,77.25
2019-03-17T20:13:16.440Z,74.92
2019-03-17T20:15:44.402Z,73.75
2019-03-17T20:18:12.207Z,75.04
2019-03-17T20:20:40.475Z,74.50
2019-03-17T20:23:10.846Z,75.34
2019-03-17T20:25:41.017Z,77.52
2019-03-17T20:28:10.631Z,77.43
2019-03-17T20:30:38.530Z,77.41
2019-03-17T20:33:06.488Z,80.21
2019-03-17T20:35:34.731Z,78.84
2019-03-17T20:38:03.358Z,81.11
2019-03-17T20:40:33.112Z,80.13
2019-03-17T20:43:00.980Z,82.00
2019-03-17T20:45:29.168Z,84.16
2019-03-17T20:47:57.104Z,83.17
2019-03-17T20:50:25.059Z,82.13
2019-03-17T20:52:52.773Z,84.38
2019-03-17T20:55:20.624Z,85.54
2019-03-17T20:57:49.183Z,84.89
2019-03-17T21:00:17.302Z,82.27
2019-03-17T21:02:45.591Z,81.85
2019-03-17T21:05:13.580Z,78.95
2019-03-17T21:07:43.821Z,76.93
2019-03-17T21:10:12.123Z,78.03
2019-03-17T21:12:39.974Z,84.88
2019-03-17T21:15:10.582Z,80.80
2019-03-17T21:17:39.066Z,81.30
2019-03-17T21:20:10.363Z,82.74
2019-03-17T21:22:38.149Z,85.16
2019-03-17T21:25:06.002Z,85.63
2019-03-17T21:27:33.758Z,88.35
2019-03-17T21:30:02.042Z,87.96
2019-03-17T21:32:30.003Z,82.84
2019-03-17T21:34:57.770Z,81.47
2019-03-17T21:37:25.380Z,83.80
2019-03-17T21:39:53.330Z,85.14
2019-03-17T21:42:21.073Z,83.35
2019-03-17T21:44:49.195Z,82.57
2019-03-17T21:47:17.048Z,84.45
2019-03-17T21:49:44.784Z,84.45
2019-03-17T21:52:12.531Z,83.64
2019-03-17T21:54:40.279Z,84.50
2019-03-17T21:57:08.020Z,82.05
2019-03-17T21:59:35.621Z,81.65
2019-03-17T22:02:12.795Z,86.75
2019-03-17T22:04:33.634Z,88.37
2019-03-17T22:07:01.711Z,87.76
2019-03-17T22:09:29.555Z,85.29
2019-03-17T22:11:56.961Z,83.38
2019-03-17T22:14:24.472Z,83.02
2019-03-17T22:16:51.867Z,86.25
2019-03-17T22:19:19.224Z,84.67
2019-03-17T22:21:46.587Z,84.58
2019-03-17T22:24:13.970Z,84.15
2019-03-17T22:26:41.347Z,86.14
2019-03-17T22:29:08.729Z,84.87
2019-03-17T22:31:36.086Z,84.85
2019-03-17T22:34:03.590Z,88.12
2019-03-17T22:36:30.969Z,87.58
2019-03-17T22:38:58.327Z,88.40
2019-03-17T22:41:25.638Z,88.50
2019-03-17T22:43:52.970Z,88.02
2019-03-17T22:46:20.297Z,88.47
2019-03-17T22:48:47.784Z,88.08
2019-03-17T22:51:15.112Z,89.06
2019-03-17T22:53:42.446Z,89.55
2019-03-17T22:56:09.777Z,88.14
2019-03-17T22:58:37.109Z,83.48
2019-03-17T23:01:04.574Z,82.32
2019-03-17T23:03:31.904Z,83.22
2019-03-17T23:05:59.237Z,82.34
2019-03-17T23:08:26.706Z,85.04
2019-03-17T23:10:54.212Z,87.38
2019-03-17T23:13:21.563Z,86.66
2019-03-17T23:15:48.965Z,87.95
2019-03-17T23:18:16.326Z,88.03
2019-03-17T23:20:43.977Z,86.39
2019-03-17T23:23:11.561Z,86.62
2019-03-17T23:25:39.035Z,84.97
2019-03-17T23:28:06.467Z,85.56
2019-03-17T23:30:34.117Z,85.47
2019-03-17T23:33:01.400Z,86.31
2019-03-17T23:35:28.732Z,85.90
2019-03-17T23:37:56.102Z,87.56
2019-03-17T23:40:23.456Z,88.35
2019-03-17T23:42:50.788Z,88.46
2019-03-17T23:45:18.096Z,86.97
2019-03-17T23:47:45.411Z,84.95
2019-03-17T23:50:12.900Z,81.89
2019-03-17T23:52:40.270Z,81.36
2019-03-17T23:55:09.716Z,85.58
2019-03-17T23:57:37.038Z,85.61
